createdAt,value
2022-11-16T00:02:32.245Z,61.03
2022-11-16T00:05:27.141Z,61.40
2022-11-16T00:08:16.563Z,67.17
2022-11-16T00:11:08.491Z,63.93
2022-11-16T00:13:56.342Z,62.07
2022-11-16T00:16:44.267Z,65.13
2022-11-16T00:19:32.515Z,67.17
2022-11-16T00:22:22.363Z,65.53
2022-11-16T00:25:10.904Z,68.87
2022-11-16T00:27:58.926Z,70.30
2022-11-16T00:30:46.647Z,68.80
2022-11-16T00:33:35.623Z,72.43
2022-11-16T00:36:23.605Z,69.43
2022-11-16T00:39:14.335Z,67.57
2022-11-16T00:42:02.235Z,69.23
2022-11-16T00:44:50.977Z,71.60
2022-11-16T00:47:39.035Z,90.17
2022-11-16T00:50:26.864Z,85.17
2022-11-16T00:53:16.919Z,102.67
2022-11-16T00:56:07.463Z,91.80
2022-11-16T00:59:01.704Z,88.07
2022-11-16T01:01:49.656Z,90.20
2022-11-16T01:04:37.977Z,94.77
2022-11-16T01:07:26.981Z,101.30
2022-11-16T01:10:18.763Z,106.17
2022-11-16T01:13:07.759Z,95.17
2022-11-16T01:15:56.800Z,86.37
2022-11-16T01:18:44.810Z,87.67
2022-11-16T01:21:32.705Z,90.07
2022-11-16T01:24:20.705Z,80.67
2022-11-16T01:27:08.629Z,91.27
2022-11-16T01:30:00.724Z,93.37
2022-11-16T01:32:48.773Z,91.53
2022-11-16T01:35:37.391Z,88.17
2022-11-16T01:38:29.534Z,93.63
2022-11-16T01:41:21.224Z,89.20
2022-11-16T01:44:52.326Z,85.90
2022-11-16T01:47:42.379Z,89.43
2022-11-16T01:50:30.597Z,91.53
2022-11-16T01:53:18.775Z,82.20
2022-11-16T01:56:18.026Z,80.03
2022-11-16T01:59:24.580Z,81.27
2022-11-16T02:02:13.231Z,76.93
2022-11-16T02:05:06.886Z,79.50
2022-11-16T02:08:41.752Z,70.03
2022-11-16T02:11:46.972Z,72.00
2022-11-16T02:14:51.938Z,72.97
2022-11-16T02:17:49.667Z,84.40
2022-11-16T02:20:59.262Z,71.90
2022-11-16T02:24:19.536Z,92.37
2022-11-16T02:27:54.894Z,88.73
2022-11-16T02:30:48.261Z,89.17
2022-11-16T02:33:38.170Z,88.77
2022-11-16T02:36:27.035Z,85.57
2022-11-16T02:39:19.679Z,86.40
2022-11-16T02:42:11.745Z,75.20
2022-11-16T02:45:01.695Z,77.60
2022-11-16T02:47:53.076Z,83.77
2022-11-16T02:50:41.981Z,83.63
2022-11-16T02:53:33.740Z,85.00
2022-11-16T02:56:22.062Z,82.03
2022-11-16T02:59:15.231Z,77.47
2022-11-16T03:02:18.125Z,82.13
2022-11-16T03:05:12.778Z,86.53
2022-11-16T03:08:15.420Z,75.63
2022-11-16T03:11:24.203Z,77.70
2022-11-16T03:14:16.724Z,76.07
2022-11-16T03:17:09.067Z,75.00
2022-11-16T03:20:02.376Z,77.47
2022-11-16T03:22:58.691Z,75.13
2022-11-16T03:25:51.770Z,66.80
2022-11-16T03:28:47.812Z,60.70
2022-11-16T03:31:42.562Z,64.00
2022-11-16T03:34:38.833Z,56.97
2022-11-16T03:37:27.397Z,58.13
2022-11-16T03:40:19.586Z,55.57
2022-11-16T03:43:11.917Z,58.80
2022-11-16T03:46:01.875Z,53.57
2022-11-16T03:48:50.063Z,59.73
2022-11-16T03:51:44.959Z,56.07
2022-11-16T03:54:33.735Z,51.93
2022-11-16T03:57:23.675Z,56.33
2022-11-16T04:00:15.919Z,60.60
2022-11-16T04:03:05.152Z,63.10
2022-11-16T04:06:18.526Z,58.77
2022-11-16T04:09:23.606Z,61.37
2022-11-16T04:12:29.531Z,59.80
2022-11-16T04:15:36.754Z,57.97
2022-11-16T04:18:50.502Z,55.77
2022-11-16T04:21:58.620Z,58.13
2022-11-16T04:24:55.988Z,61.70
2022-11-16T04:28:02.513Z,61.17
2022-11-16T04:31:12.057Z,58.30
2022-11-16T04:34:21.265Z,62.70
2022-11-16T04:37:33.378Z,60.17
2022-11-16T04:40:24.460Z,58.00
2022-11-16T04:43:12.357Z,67.10
2022-11-16T04:46:22.260Z,59.97
2022-11-16T04:49:09.973Z,63.60
2022-11-16T04:51:59.517Z,60.87
2022-11-16T04:54:49.354Z,63.60
2022-11-16T04:57:37.641Z,61.33
2022-11-16T05:00:25.906Z,69.03
2022-11-16T05:03:14.922Z,67.83
2022-11-16T05:06:03.385Z,64.83
2022-11-16T05:08:52.041Z,67.47
2022-11-16T05:11:41.177Z,63.70
2022-11-16T05:14:29.026Z,65.73
2022-11-16T05:17:18.290Z,68.10
2022-11-16T05:20:25.915Z,72.20
2022-11-16T05:23:36.525Z,67.50
2022-11-16T05:26:29.969Z,67.83
2022-11-16T05:29:17.674Z,63.23
2022-11-16T05:32:06.373Z,65.40
2022-11-16T05:34:54.005Z,64.03
2022-11-16T05:37:44.595Z,67.27
2022-11-16T05:40:33.202Z,55.13
2022-11-16T05:43:22.103Z,61.03
2022-11-16T05:46:21.675Z,56.77
2022-11-16T05:49:10.399Z,59.57
2022-11-16T05:51:58.278Z,59.20
2022-11-16T05:54:47.826Z,56.50
2022-11-16T05:57:35.499Z,66.83
2022-11-16T06:00:23.494Z,65.13
2022-11-16T06:03:13.977Z,62.70
2022-11-16T06:06:02.218Z,65.00
2022-11-16T06:08:51.235Z,57.37
2022-11-16T06:11:46.222Z,64.73
2022-11-16T06:14:34.200Z,60.73
2022-11-16T06:17:22.131Z,65.50
2022-11-16T06:20:11.245Z,58.90
2022-11-16T06:22:59.305Z,61.47
2022-11-16T06:25:48.379Z,60.83
2022-11-16T06:28:37.778Z,71.30
2022-11-16T06:31:25.761Z,69.23
2022-11-16T06:34:15.209Z,60.20
2022-11-16T06:37:03.037Z,74.10
2022-11-16T06:39:51.240Z,68.17
2022-11-16T06:42:39.207Z,69.10
2022-11-16T06:45:28.709Z,72.03
2022-11-16T06:48:20.533Z,63.23
2022-11-16T06:51:08.685Z,78.83
2022-11-16T06:53:56.479Z,69.97
2022-11-16T06:56:45.181Z,76.43
2022-11-16T06:59:33.157Z,74.03
2022-11-16T07:02:23.280Z,77.50
2022-11-16T07:05:10.930Z,77.50
2022-11-16T07:08:00.467Z,71.33
2022-11-16T07:10:48.203Z,74.87
2022-11-16T07:13:37.592Z,67.67
2022-11-16T07:16:26.634Z,75.23
2022-11-16T07:19:20.892Z,77.80
2022-11-16T07:22:09.586Z,68.40
2022-11-16T07:24:57.737Z,75.57
2022-11-16T07:27:46.734Z,75.53
2022-11-16T07:30:34.583Z,74.10
2022-11-16T07:33:32.941Z,70.33
2022-11-16T07:36:50.834Z,69.37
2022-11-16T07:39:38.816Z,71.03
2022-11-16T07:42:28.742Z,68.97
2022-11-16T07:45:39.837Z,68.50
2022-11-16T07:48:31.049Z,77.77
2022-11-16T07:51:37.069Z,68.60
2022-11-16T07:54:37.834Z,73.30
2022-11-16T07:57:25.660Z,65.93
2022-11-16T08:00:15.621Z,73.03
2022-11-16T08:03:10.173Z,68.97
2022-11-16T08:06:01.152Z,65.00
2022-11-16T08:08:53.716Z,70.67
2022-11-16T08:11:47.165Z,64.67
2022-11-16T08:14:35.055Z,66.93
2022-11-16T08:17:23.851Z,54.00
2022-11-16T08:20:12.966Z,68.20
2022-11-16T08:23:02.042Z,67.60
2022-11-16T08:25:53.752Z,64.47
2022-11-16T08:28:43.819Z,69.97
2022-11-16T08:31:31.594Z,60.23
2022-11-16T08:34:29.499Z,67.50
2022-11-16T08:37:21.139Z,57.27
2022-11-16T08:40:10.352Z,63.97
2022-11-16T08:42:59.870Z,62.13
2022-11-16T08:45:51.476Z,67.70
2022-11-16T08:48:40.478Z,61.10
2022-11-16T08:51:28.366Z,66.30
2022-11-16T08:54:22.547Z,56.80
2022-11-16T08:57:10.408Z,64.20
2022-11-16T09:00:00.263Z,54.40
2022-11-16T09:02:49.414Z,65.77
2022-11-16T09:05:36.792Z,56.77
2022-11-16T09:08:24.541Z,55.10
2022-11-16T09:11:15.858Z,58.33
2022-11-16T09:14:03.761Z,53.13
2022-11-16T09:16:52.354Z,57.70
2022-11-16T09:19:41.628Z,52.80
2022-11-16T09:22:29.245Z,51.60
2022-11-16T09:25:19.131Z,55.93
2022-11-16T09:28:07.691Z,61.67
2022-11-16T09:30:55.340Z,53.83
2022-11-16T09:33:43.059Z,45.67
2022-11-16T09:36:32.526Z,48.27
2022-11-16T09:39:30.660Z,46.00
2022-11-16T09:42:28.227Z,59.93
2022-11-16T09:45:20.656Z,42.77
2022-11-16T09:48:13.210Z,56.87
2022-11-16T09:51:07.552Z,44.50
2022-11-16T09:54:01.748Z,51.87
2022-11-16T09:56:53.027Z,41.20
2022-11-16T09:59:44.781Z,50.23
2022-11-16T10:02:37.689Z,47.57
2022-11-16T10:05:30.845Z,45.03
2022-11-16T10:08:24.554Z,40.60
2022-11-16T10:11:45.422Z,51.47
2022-11-16T10:15:01.753Z,49.60
2022-11-16T10:18:05.913Z,45.63
2022-11-16T10:21:23.710Z,48.87
2022-11-16T10:24:27.322Z,49.87
2022-11-16T10:27:40.673Z,49.27
2022-11-16T10:30:28.959Z,48.00
2022-11-16T10:33:20.688Z,47.97
2022-11-16T10:36:14.024Z,48.20
2022-11-16T10:39:02.645Z,48.43
2022-11-16T10:41:51.541Z,50.20
2022-11-16T10:44:45.388Z,49.37
2022-11-16T10:47:42.627Z,49.60
2022-11-16T10:50:39.135Z,44.67
2022-11-16T10:53:29.351Z,51.83
2022-11-16T10:56:22.340Z,57.53
2022-11-16T10:59:11.296Z,50.60
2022-11-16T11:02:01.448Z,48.20
2022-11-16T11:05:03.164Z,50.07
2022-11-16T11:07:58.366Z,51.70
2022-11-16T11:11:01.877Z,50.73
2022-11-16T11:14:05.079Z,53.73
2022-11-16T11:16:54.200Z,44.77
2022-11-16T11:19:43.443Z,51.40
2022-11-16T11:22:31.967Z,50.23
2022-11-16T11:25:23.977Z,52.93
2022-11-16T11:28:20.232Z,55.53
2022-11-16T11:31:13.745Z,49.93
2022-11-16T11:34:12.385Z,56.47
2022-11-16T11:37:03.422Z,48.87
2022-11-16T11:40:18.961Z,47.17
2022-11-16T11:43:07.602Z,45.57
2022-11-16T11:46:00.282Z,44.93
2022-11-16T11:48:55.774Z,42.30
2022-11-16T11:51:46.971Z,48.97
2022-11-16T11:54:45.934Z,37.90
2022-11-16T11:57:43.603Z,37.60
2022-11-16T12:00:39.286Z,38.33
2022-11-16T12:03:49.429Z,37.33
2022-11-16T12:06:44.218Z,38.77
2022-11-16T12:09:44.059Z,37.27
2022-11-16T12:12:47.114Z,36.07
2022-11-16T12:15:46.297Z,39.10
2022-11-16T12:18:55.830Z,44.83
2022-11-16T12:21:56.948Z,39.37
2022-11-16T12:24:58.404Z,54.73
2022-11-16T12:27:54.914Z,53.50
2022-11-16T12:30:56.795Z,42.83
2022-11-16T12:33:52.055Z,45.40
2022-11-16T12:36:51.660Z,44.20
2022-11-16T12:39:45.514Z,41.63
2022-11-16T12:42:43.728Z,39.57
2022-11-16T12:45:46.165Z,32.87
2022-11-16T12:49:11.430Z,34.90
2022-11-16T12:52:14.559Z,37.43
2022-11-16T12:55:27.832Z,38.00
2022-11-16T12:58:24.801Z,41.93
2022-11-16T13:01:18.598Z,34.80
2022-11-16T13:04:10.868Z,40.53
2022-11-16T13:07:10.400Z,36.43
2022-11-16T13:10:04.454Z,39.10
2022-11-16T13:13:21.926Z,37.30
2022-11-16T13:16:08.012Z,36.73
2022-11-16T13:18:56.972Z,39.10
2022-11-16T13:21:52.860Z,31.73
2022-11-16T13:24:49.353Z,35.17
2022-11-16T13:27:44.469Z,31.27
2022-11-16T13:30:42.411Z,32.67
2022-11-16T13:33:43.970Z,32.50
2022-11-16T13:36:47.657Z,34.27
2022-11-16T13:40:25.916Z,37.30
2022-11-16T13:43:19.825Z,38.87
2022-11-16T13:46:18.002Z,33.17
2022-11-16T13:49:33.551Z,36.63
2022-11-16T13:52:26.399Z,33.57
2022-11-16T13:55:30.115Z,32.17
2022-11-16T13:58:23.329Z,34.27
2022-11-16T14:01:15.437Z,28.37
2022-11-16T14:04:50.720Z,25.53
2022-11-16T14:07:44.885Z,29.83
2022-11-16T14:11:01.167Z,24.33
2022-11-16T14:13:49.092Z,23.53
2022-11-16T14:16:50.760Z,25.60
2022-11-16T14:19:57.042Z,24.23
2022-11-16T14:22:58.055Z,22.40
2022-11-16T14:25:54.509Z,26.83
2022-11-16T14:29:04.777Z,27.67
2022-11-16T14:31:55.961Z,22.70
2022-11-16T14:34:46.869Z,23.10
2022-11-16T14:37:38.125Z,25.47
2022-11-16T14:40:27.753Z,26.63
2022-11-16T14:43:21.710Z,32.10
2022-11-16T14:46:17.212Z,34.80
2022-11-16T14:49:05.559Z,29.90
2022-11-16T14:51:57.069Z,30.40
2022-11-16T14:54:51.770Z,26.47
2022-11-16T14:57:41.239Z,25.00
2022-11-16T15:00:30.349Z,33.87
2022-11-16T15:03:18.356Z,25.63
2022-11-16T15:06:07.574Z,31.73
2022-11-16T15:08:59.523Z,29.73
2022-11-16T15:12:08.094Z,30.17
2022-11-16T15:15:02.119Z,22.17
2022-11-16T15:18:06.903Z,24.10
2022-11-16T15:20:55.057Z,23.70
2022-11-16T15:24:02.126Z,24.23
2022-11-16T15:26:59.380Z,25.97
2022-11-16T15:29:48.222Z,21.40
2022-11-16T15:32:38.361Z,18.47
2022-11-16T15:35:29.708Z,19.03
2022-11-16T15:38:21.018Z,21.50
2022-11-16T15:41:10.326Z,26.80
2022-11-16T15:44:16.318Z,24.23
2022-11-16T15:47:05.379Z,31.50
2022-11-16T15:49:55.370Z,25.10
2022-11-16T15:52:44.785Z,29.10
2022-11-16T15:55:35.913Z,28.87
2022-11-16T15:58:26.676Z,26.67
2022-11-16T16:01:16.608Z,27.83
2022-11-16T16:04:05.964Z,26.33
2022-11-16T16:06:56.951Z,28.73
2022-11-16T16:09:45.420Z,25.70
2022-11-16T16:12:33.023Z,24.67
2022-11-16T16:15:24.054Z,23.90
2022-11-16T16:18:38.150Z,28.40
2022-11-16T16:21:27.717Z,36.67
2022-11-16T16:24:42.398Z,29.97
2022-11-16T16:27:32.727Z,25.07
2022-11-16T16:30:20.761Z,23.87
2022-11-16T16:33:12.080Z,21.43
2022-11-16T16:35:59.660Z,22.43
2022-11-16T16:38:47.603Z,20.87
2022-11-16T16:41:36.593Z,20.77
2022-11-16T16:44:24.134Z,19.50
2022-11-16T16:47:12.652Z,21.47
2022-11-16T16:50:00.350Z,18.33
2022-11-16T16:52:48.077Z,20.13
2022-11-16T16:55:37.729Z,21.90
2022-11-16T16:58:26.967Z,22.87
2022-11-16T17:01:14.907Z,22.00
2022-11-16T17:31:29.377Z,14.87
2022-11-16T17:34:16.886Z,16.83
2022-11-16T17:37:04.801Z,19.20
2022-11-16T17:39:53.019Z,18.43
2022-11-16T17:42:40.765Z,19.63
2022-11-16T17:45:28.514Z,20.50
2022-11-16T17:48:17.450Z,18.20
2022-11-16T17:51:06.117Z,17.43
2022-11-16T17:53:54.374Z,18.83
2022-11-16T17:56:41.850Z,15.27
2022-11-16T17:59:30.097Z,14.13
2022-11-16T18:02:17.839Z,14.87
2022-11-16T18:05:07.691Z,13.70
2022-11-16T18:07:55.468Z,13.70
2022-11-16T18:10:43.397Z,13.13
2022-11-16T18:13:31.589Z,13.63
2022-11-16T18:16:21.351Z,12.10
2022-11-16T18:19:09.973Z,11.93
2022-11-16T18:21:59.092Z,10.40
2022-11-16T18:24:46.769Z,11.40
2022-11-16T18:27:34.329Z,9.70
2022-11-16T18:30:23.150Z,11.40
2022-11-16T18:33:11.180Z,10.67
2022-11-16T18:35:58.850Z,10.73
2022-11-16T18:38:48.134Z,11.03
2022-11-16T18:41:35.969Z,9.77
2022-11-16T18:44:23.656Z,9.60
2022-11-16T18:47:11.202Z,10.53
2022-11-16T18:49:59.236Z,10.97
2022-11-16T18:52:49.325Z,11.07
2022-11-16T18:55:38.753Z,10.90
2022-11-16T19:01:35.914Z,12.10
2022-11-16T19:04:23.739Z,11.23
2022-11-16T19:07:11.554Z,10.60
2022-11-16T19:09:59.485Z,9.97
2022-11-16T19:12:48.412Z,12.60
2022-11-16T19:15:36.718Z,12.13
2022-11-16T19:18:24.599Z,12.17
2022-11-16T19:21:14.500Z,11.93
2022-11-16T19:24:02.459Z,12.30
2022-11-16T19:26:50.394Z,12.33
2022-11-16T19:29:39.278Z,12.17
2022-11-16T19:32:27.039Z,12.17
2022-11-16T19:35:16.133Z,12.63
2022-11-16T19:38:04.091Z,11.80
2022-11-16T19:40:51.814Z,11.73
2022-11-16T19:43:40.045Z,12.00
2022-11-16T19:46:30.483Z,11.60
2022-11-16T19:49:20.120Z,11.27
2022-11-16T19:52:07.960Z,11.87
2022-11-16T19:54:56.136Z,11.63
2022-11-16T19:57:44.273Z,11.33
2022-11-16T20:00:32.186Z,11.53
2022-11-16T20:03:21.256Z,11.80
2022-11-16T20:06:11.346Z,10.57
2022-11-16T20:09:02.905Z,9.80
2022-11-16T20:11:51.757Z,11.03
2022-11-16T20:14:39.350Z,10.27
2022-11-16T20:17:26.941Z,10.13
2022-11-16T20:20:16.218Z,10.27
2022-11-16T20:23:03.828Z,10.47
2022-11-16T20:25:51.902Z,10.77
2022-11-16T20:28:41.139Z,11.07
2022-11-16T20:31:29.907Z,11.07
2022-11-16T20:34:20.391Z,11.17
2022-11-16T20:37:09.489Z,10.33
2022-11-16T20:39:57.300Z,11.23
2022-11-16T20:42:44.828Z,11.87
2022-11-16T20:45:34.769Z,11.17
2022-11-16T20:48:23.182Z,10.43
2022-11-16T20:51:12.654Z,10.30
2022-11-16T20:54:01.807Z,11.30
2022-11-16T20:56:50.316Z,11.00
2022-11-16T20:59:37.899Z,10.17
2022-11-16T21:02:25.719Z,10.67
2022-11-16T21:05:13.305Z,12.13
2022-11-16T21:08:01.225Z,13.40
2022-11-16T21:10:50.193Z,13.43
2022-11-16T21:13:55.422Z,13.83
2022-11-16T21:16:42.948Z,13.97
2022-11-16T21:19:30.654Z,13.47
2022-11-16T21:22:18.707Z,13.77
2022-11-16T21:25:07.056Z,12.87
2022-11-16T21:27:57.108Z,12.77
2022-11-16T21:30:54.978Z,14.00
2022-11-16T21:33:43.810Z,13.37
2022-11-16T21:36:32.636Z,12.30
2022-11-16T21:39:20.109Z,13.23
2022-11-16T21:42:07.910Z,11.93
2022-11-16T21:44:57.103Z,12.97
2022-11-16T21:47:45.135Z,12.90
2022-11-16T21:50:33.245Z,12.47
2022-11-16T21:53:20.798Z,14.00
2022-11-16T21:56:12.901Z,13.40
2022-11-16T21:59:00.749Z,14.53
2022-11-16T22:02:02.245Z,13.77
2022-11-16T22:05:07.433Z,12.60
2022-11-16T22:07:55.432Z,13.80
2022-11-16T22:10:43.327Z,16.20
2022-11-16T22:13:34.064Z,15.20
2022-11-16T22:16:41.249Z,17.43
2022-11-16T22:19:30.721Z,16.07
2022-11-16T22:22:18.520Z,17.90
2022-11-16T22:25:07.914Z,15.33
2022-11-16T22:31:05.140Z,17.93
2022-11-16T22:33:54.171Z,16.90
2022-11-16T22:36:44.005Z,16.70
2022-11-16T22:39:31.758Z,17.57
2022-11-16T22:42:20.258Z,17.67
2022-11-16T22:45:08.594Z,17.10
2022-11-16T22:47:56.867Z,17.47
2022-11-16T22:50:45.126Z,16.43
2022-11-16T22:53:35.027Z,17.70
2022-11-16T22:56:23.971Z,16.50
2022-11-16T22:59:12.022Z,18.50
2022-11-16T23:02:01.122Z,22.23
2022-11-16T23:04:49.074Z,18.73
2022-11-16T23:07:37.115Z,19.20
2022-11-16T23:10:26.549Z,17.13
2022-11-16T23:13:32.070Z,22.03
2022-11-16T23:16:20.146Z,19.80
2022-11-16T23:19:29.002Z,19.57
2022-11-16T23:22:36.767Z,18.70
2022-11-16T23:25:43.529Z,18.40
2022-11-16T23:28:31.582Z,18.47
2022-11-16T23:31:19.639Z,15.47
2022-11-16T23:34:07.422Z,15.13
2022-11-16T23:36:55.179Z,15.27
2022-11-16T23:39:43.422Z,14.87
2022-11-16T23:42:50.175Z,14.53
2022-11-16T23:45:38.307Z,12.97
2022-11-16T23:48:26.420Z,13.70
2022-11-16T23:51:14.520Z,13.10
2022-11-16T23:54:02.456Z,13.40
2022-11-16T23:56:50.412Z,12.00
2022-11-16T23:59:39.912Z,12.57
